createdAt,value
2024-05-09T00:01:44.092Z,10.44
2024-05-09T00:04:29.319Z,10.44
2024-05-09T00:07:14.644Z,10.54
2024-05-09T00:10:00.093Z,10.26
2024-05-09T00:12:45.505Z,10.04
2024-05-09T00:15:31.006Z,9.80
2024-05-09T00:18:16.500Z,9.77
2024-05-09T00:21:04.964Z,9.86
2024-05-09T00:23:50.467Z,9.65
2024-05-09T00:26:35.820Z,9.81
2024-05-09T00:29:21.757Z,9.83
2024-05-09T00:32:07.412Z,9.60
2024-05-09T00:34:52.553Z,9.97
2024-05-09T00:37:37.910Z,9.75
2024-05-09T00:40:31.134Z,9.68
2024-05-09T00:43:23.877Z,9.68
2024-05-09T00:46:10.074Z,9.64
2024-05-09T00:48:55.727Z,9.41
2024-05-09T00:51:42.104Z,9.20
2024-05-09T00:54:28.753Z,9.40
2024-05-09T00:57:14.179Z,9.33
2024-05-09T01:00:00.175Z,9.44
2024-05-09T01:02:45.381Z,9.59
2024-05-09T01:05:30.949Z,9.67
2024-05-09T01:08:16.314Z,9.80
2024-05-09T01:11:01.919Z,9.75
2024-05-09T01:13:47.724Z,9.60
2024-05-09T01:16:33.159Z,9.51
2024-05-09T01:19:28.583Z,9.28
2024-05-09T01:22:14.013Z,9.09
2024-05-09T01:24:59.518Z,9.10
2024-05-09T01:27:44.919Z,9.24
2024-05-09T01:30:34.976Z,9.33
2024-05-09T01:33:22.631Z,9.35
2024-05-09T01:36:07.789Z,9.39
2024-05-09T01:38:53.210Z,8.87
2024-05-09T01:41:38.791Z,8.84
2024-05-09T01:44:24.267Z,8.98
2024-05-09T01:47:09.907Z,9.10
2024-05-09T01:49:55.235Z,8.87
2024-05-09T01:52:40.645Z,8.81
2024-05-09T01:55:26.097Z,8.84
2024-05-09T01:58:11.659Z,8.74
2024-05-09T02:00:57.137Z,8.76
2024-05-09T02:03:45.184Z,8.85
2024-05-09T02:06:30.740Z,8.66
2024-05-09T02:09:16.181Z,8.73
2024-05-09T02:12:01.652Z,8.73
2024-05-09T02:14:46.794Z,8.61
2024-05-09T02:17:32.067Z,8.44
2024-05-09T02:20:26.753Z,8.38
2024-05-09T02:23:15.426Z,8.33
2024-05-09T02:26:00.657Z,8.45
2024-05-09T02:28:46.196Z,8.51
2024-05-09T02:31:31.445Z,8.47
2024-05-09T02:34:16.889Z,8.42
2024-05-09T02:37:02.089Z,8.62
2024-05-09T02:39:47.570Z,8.75
2024-05-09T02:42:33.023Z,8.79
2024-05-09T02:45:18.435Z,8.52
2024-05-09T02:48:04.539Z,8.63
2024-05-09T02:50:49.983Z,8.45
2024-05-09T02:53:35.553Z,8.53
2024-05-09T02:56:21.394Z,8.51
2024-05-09T02:59:06.775Z,8.60
2024-05-09T03:01:52.138Z,8.62
2024-05-09T03:04:38.790Z,8.46
2024-05-09T03:07:23.998Z,8.47
2024-05-09T03:10:18.233Z,8.49
2024-05-09T03:13:07.552Z,8.46
2024-05-09T03:15:52.689Z,8.43
2024-05-09T03:18:38.748Z,8.18
2024-05-09T03:21:24.236Z,7.98
2024-05-09T03:24:11.096Z,8.13
2024-05-09T03:26:56.568Z,8.10
2024-05-09T03:29:42.165Z,8.16
2024-05-09T03:32:27.778Z,8.24
2024-05-09T03:35:13.393Z,8.37
2024-05-09T03:37:58.729Z,8.57
2024-05-09T03:40:49.934Z,8.50
2024-05-09T03:43:35.756Z,8.12
2024-05-09T03:46:21.133Z,8.11
2024-05-09T03:49:06.483Z,8.14
2024-05-09T03:51:51.849Z,7.91
2024-05-09T03:54:44.945Z,8.15
2024-05-09T03:57:29.959Z,7.92
2024-05-09T04:00:22.083Z,7.80
2024-05-09T04:03:13.202Z,7.95
2024-05-09T04:05:58.927Z,7.92
2024-05-09T04:08:44.383Z,7.83
2024-05-09T04:11:29.711Z,7.87
2024-05-09T04:14:15.135Z,8.02
2024-05-09T04:17:00.484Z,7.94
2024-05-09T04:19:46.088Z,7.86
2024-05-09T04:22:31.418Z,7.96
2024-05-09T04:25:16.897Z,7.97
2024-05-09T04:28:02.643Z,8.08
2024-05-09T04:30:47.823Z,8.25
2024-05-09T04:33:33.394Z,8.39
2024-05-09T04:36:18.667Z,8.32
2024-05-09T04:39:04.281Z,8.40
2024-05-09T04:41:49.777Z,8.42
2024-05-09T04:44:34.944Z,8.51
2024-05-09T04:47:21.092Z,8.76
2024-05-09T04:50:11.388Z,8.90
2024-05-09T04:52:56.728Z,9.06
2024-05-09T04:55:42.140Z,9.20
2024-05-09T04:58:27.453Z,9.20
2024-05-09T05:01:12.816Z,9.17
2024-05-09T05:03:58.920Z,9.20
2024-05-09T05:06:44.230Z,9.41
2024-05-09T05:09:29.842Z,9.54
2024-05-09T05:12:15.534Z,9.67
2024-05-09T05:15:00.976Z,9.84
2024-05-09T05:17:46.705Z,9.94
2024-05-09T05:20:33.826Z,10.12
2024-05-09T05:23:21.183Z,10.29
2024-05-09T05:26:06.772Z,10.44
2024-05-09T05:28:52.122Z,10.54
2024-05-09T05:31:37.595Z,10.67
2024-05-09T05:34:22.850Z,10.71
2024-05-09T05:37:08.458Z,10.73
2024-05-09T05:39:53.890Z,10.88
2024-05-09T05:42:39.277Z,11.02
2024-05-09T05:45:24.513Z,11.25
2024-05-09T05:48:10.121Z,11.45
2024-05-09T05:50:55.271Z,11.59
2024-05-09T05:53:40.548Z,11.59
2024-05-09T05:56:26.396Z,11.63
2024-05-09T05:59:14.069Z,11.76
2024-05-09T06:02:00.497Z,11.95
2024-05-09T06:04:46.132Z,12.00
2024-05-09T06:07:31.560Z,11.83
2024-05-09T06:10:21.520Z,11.75
2024-05-09T06:13:13.124Z,11.91
2024-05-09T06:15:58.860Z,12.01
2024-05-09T06:18:44.431Z,11.97
2024-05-09T06:21:29.761Z,12.48
2024-05-09T06:24:15.173Z,12.72
2024-05-09T06:27:00.469Z,12.82
2024-05-09T06:29:45.733Z,12.92
2024-05-09T06:32:31.538Z,13.08
2024-05-09T06:35:16.752Z,13.18
2024-05-09T06:38:02.265Z,13.18
2024-05-09T06:40:47.923Z,13.14
2024-05-09T06:43:33.477Z,13.24
2024-05-09T06:46:19.032Z,13.42
2024-05-09T06:49:04.647Z,13.22
2024-05-09T06:51:50.255Z,13.41
2024-05-09T06:54:35.552Z,13.59
2024-05-09T06:57:20.968Z,13.74
2024-05-09T07:00:10.302Z,13.96
2024-05-09T07:03:00.120Z,14.00
2024-05-09T07:05:48.345Z,14.24
2024-05-09T07:08:34.768Z,14.57
2024-05-09T07:11:20.236Z,14.70
2024-05-09T07:14:06.586Z,14.47
2024-05-09T07:16:51.622Z,14.44
2024-05-09T07:19:37.278Z,14.78
2024-05-09T07:22:22.696Z,14.46
2024-05-09T07:25:08.208Z,14.67
2024-05-09T07:27:53.588Z,15.04
2024-05-09T07:30:39.157Z,15.14
2024-05-09T07:33:25.037Z,15.30
2024-05-09T07:36:10.555Z,15.36
2024-05-09T07:38:56.039Z,15.50
2024-05-09T07:41:41.446Z,15.86
2024-05-09T07:44:27.043Z,15.78
2024-05-09T07:48:27.669Z,16.09
2024-05-09T07:53:36.357Z,15.69
2024-05-09T07:56:12.161Z,15.74
2024-05-09T07:58:57.766Z,15.86
2024-05-09T08:01:43.390Z,16.57
2024-05-09T08:04:28.730Z,16.67
2024-05-09T08:07:14.036Z,16.91
2024-05-09T08:09:59.526Z,17.02
2024-05-09T08:12:44.992Z,16.90
2024-05-09T08:15:30.666Z,16.74
2024-05-09T08:18:16.316Z,17.24
2024-05-09T08:21:01.638Z,16.96
2024-05-09T08:23:47.024Z,16.61
2024-05-09T08:26:32.495Z,17.28
2024-05-09T08:29:17.785Z,17.03
2024-05-09T08:32:03.616Z,17.28
2024-05-09T08:34:48.968Z,16.90
2024-05-09T08:37:38.735Z,17.18
2024-05-09T08:40:33.303Z,17.88
2024-05-09T08:43:24.008Z,18.32
2024-05-09T08:46:11.164Z,19.00
2024-05-09T08:48:57.337Z,19.33
2024-05-09T08:51:43.435Z,19.38
2024-05-09T08:54:30.323Z,19.22
2024-05-09T08:57:16.184Z,18.60
2024-05-09T09:00:07.910Z,18.92
2024-05-09T09:02:56.030Z,19.51
2024-05-09T09:05:46.206Z,19.48
2024-05-09T09:08:31.884Z,17.87
2024-05-09T09:11:16.970Z,17.86
2024-05-09T09:14:02.282Z,18.23
2024-05-09T09:16:47.709Z,17.88
2024-05-09T09:19:32.994Z,18.24
2024-05-09T09:22:18.405Z,18.91
2024-05-09T09:25:03.981Z,18.52
2024-05-09T09:27:49.433Z,19.39
2024-05-09T09:30:37.790Z,19.93
2024-05-09T09:33:23.895Z,20.45
2024-05-09T09:36:11.551Z,20.30
2024-05-09T09:38:57.624Z,20.24
2024-05-09T09:41:45.189Z,20.95
2024-05-09T09:44:34.171Z,21.20
2024-05-09T09:47:20.620Z,19.16
2024-05-09T09:50:12.056Z,19.24
2024-05-09T09:53:00.774Z,19.59
2024-05-09T09:55:46.359Z,19.71
2024-05-09T09:58:32.766Z,20.23
2024-05-09T10:01:18.000Z,20.01
2024-05-09T10:04:03.732Z,19.53
2024-05-09T10:06:52.140Z,19.86
2024-05-09T10:09:37.122Z,20.73
2024-05-09T10:12:22.697Z,20.42
2024-05-09T10:15:08.433Z,20.71
2024-05-09T10:17:53.556Z,21.45
2024-05-09T10:20:43.100Z,21.78
2024-05-09T10:23:30.506Z,22.13
2024-05-09T10:26:15.629Z,22.43
2024-05-09T10:29:21.597Z,22.48
2024-05-09T10:32:08.495Z,22.14
2024-05-09T10:35:11.693Z,22.10
2024-05-09T10:38:03.136Z,22.15
2024-05-09T10:40:56.471Z,22.55
2024-05-09T10:43:42.106Z,22.68
2024-05-09T10:46:27.547Z,22.78
2024-05-09T10:49:16.787Z,21.81
2024-05-09T10:52:03.780Z,20.06
2024-05-09T10:54:50.002Z,20.71
2024-05-09T10:57:38.823Z,21.13
2024-05-09T11:00:35.646Z,21.60
2024-05-09T11:03:23.410Z,21.61
2024-05-09T11:06:11.133Z,21.80
2024-05-09T11:08:56.696Z,21.79
2024-05-09T11:11:42.021Z,21.89
2024-05-09T11:14:27.335Z,22.44
2024-05-09T11:17:12.783Z,22.89
2024-05-09T11:19:58.207Z,22.52
2024-05-09T11:22:43.610Z,20.54
2024-05-09T11:25:29.218Z,20.73
2024-05-09T11:28:14.789Z,20.59
2024-05-09T11:31:08.239Z,20.48
2024-05-09T11:33:54.520Z,21.90
2024-05-09T11:36:40.321Z,21.28
2024-05-09T11:39:26.182Z,21.76
2024-05-09T11:42:11.955Z,22.43
2024-05-09T11:44:57.270Z,22.87
2024-05-09T11:47:42.932Z,23.22
2024-05-09T11:50:33.046Z,22.49
2024-05-09T11:53:21.353Z,20.73
2024-05-09T11:56:06.881Z,21.57
2024-05-09T11:58:52.328Z,22.79
2024-05-09T12:01:37.945Z,21.84
2024-05-09T12:04:23.730Z,21.63
2024-05-09T12:07:12.754Z,21.56
2024-05-09T12:09:58.174Z,20.69
2024-05-09T12:12:43.720Z,20.98
2024-05-09T12:15:29.454Z,20.83
2024-05-09T12:18:14.638Z,21.13
2024-05-09T12:21:00.835Z,21.45
2024-05-09T12:23:46.324Z,21.77
2024-05-09T12:26:31.581Z,22.26
2024-05-09T12:29:17.807Z,22.17
2024-05-09T12:32:03.317Z,22.35
2024-05-09T12:34:48.691Z,23.54
2024-05-09T12:37:34.151Z,24.31
2024-05-09T12:40:26.788Z,23.51
2024-05-09T12:43:20.179Z,23.48
2024-05-09T12:46:05.441Z,24.01
2024-05-09T12:48:51.115Z,23.89
2024-05-09T12:51:36.370Z,24.35
2024-05-09T12:54:21.759Z,24.63
2024-05-09T12:57:07.287Z,24.52
2024-05-09T12:59:52.698Z,24.88
2024-05-09T13:02:38.240Z,22.89
2024-05-09T13:05:23.439Z,22.98
2024-05-09T13:08:09.473Z,22.23
2024-05-09T13:10:54.967Z,22.03
2024-05-09T13:13:40.241Z,22.65
2024-05-09T13:16:25.872Z,22.85
2024-05-09T13:19:11.199Z,23.61
2024-05-09T13:21:56.615Z,24.16
2024-05-09T13:24:42.297Z,24.27
2024-05-09T13:27:27.611Z,23.99
2024-05-09T13:30:21.730Z,23.61
2024-05-09T13:33:14.671Z,23.63
2024-05-09T13:36:00.159Z,23.94
2024-05-09T13:38:45.654Z,24.00
2024-05-09T13:41:30.980Z,23.14
2024-05-09T13:44:16.274Z,23.44
2024-05-09T13:47:01.779Z,23.27
2024-05-09T13:49:47.982Z,23.42
2024-05-09T13:52:33.249Z,23.19
2024-05-09T13:55:18.516Z,22.97
2024-05-09T13:58:04.493Z,23.21
2024-05-09T14:00:49.855Z,23.10
2024-05-09T14:03:35.326Z,22.85
2024-05-09T14:06:20.634Z,22.75
2024-05-09T14:09:06.127Z,22.68
2024-05-09T14:11:51.633Z,22.64
2024-05-09T14:14:37.014Z,22.45
2024-05-09T14:17:22.747Z,22.28
2024-05-09T14:20:11.754Z,22.01
2024-05-09T14:23:00.529Z,21.99
2024-05-09T14:25:50.073Z,21.72
2024-05-09T14:28:37.387Z,21.79
2024-05-09T14:31:22.957Z,21.94
2024-05-09T14:34:08.344Z,22.21
2024-05-09T14:36:54.099Z,22.37
2024-05-09T14:39:39.518Z,22.16
2024-05-09T14:42:25.048Z,22.19
2024-05-09T14:45:10.488Z,22.23
2024-05-09T14:47:56.037Z,22.62
2024-05-09T14:50:41.901Z,22.45
2024-05-09T14:53:27.202Z,22.78
2024-05-09T14:56:12.649Z,22.70
2024-05-09T14:58:58.093Z,22.97
2024-05-09T15:01:43.632Z,22.81
2024-05-09T15:04:29.134Z,22.21
2024-05-09T15:07:14.693Z,22.48
2024-05-09T15:10:00.226Z,22.52
2024-05-09T15:12:45.670Z,22.46
2024-05-09T15:15:31.385Z,21.64
2024-05-09T15:18:17.605Z,20.88
2024-05-09T15:21:02.917Z,21.19
2024-05-09T15:23:48.421Z,20.82
2024-05-09T15:26:33.852Z,21.23
2024-05-09T15:29:19.336Z,21.37
2024-05-09T15:32:05.414Z,21.67
2024-05-09T15:34:50.510Z,21.92
2024-05-09T15:37:36.910Z,22.01
2024-05-09T15:40:31.278Z,22.24
2024-05-09T15:43:23.193Z,22.49
2024-05-09T15:46:08.940Z,22.62
2024-05-09T15:48:54.354Z,22.49
2024-05-09T15:51:39.697Z,22.41
2024-05-09T15:54:25.569Z,22.26
2024-05-09T15:57:11.938Z,22.10
2024-05-09T15:59:57.047Z,22.18
2024-05-09T16:02:42.492Z,22.50
2024-05-09T16:05:28.359Z,22.41
2024-05-09T16:08:14.470Z,22.14
2024-05-09T16:11:00.089Z,21.12
2024-05-09T16:13:46.069Z,21.31
2024-05-09T16:16:31.864Z,21.60
2024-05-09T16:19:17.731Z,21.87
2024-05-09T16:22:03.450Z,21.74
2024-05-09T16:24:48.932Z,21.69
2024-05-09T16:27:34.692Z,21.85
2024-05-09T16:30:27.857Z,21.61
2024-05-09T16:33:19.992Z,21.79
2024-05-09T16:36:06.617Z,21.65
2024-05-09T16:38:52.005Z,21.52
2024-05-09T16:41:37.590Z,21.74
2024-05-09T16:44:22.977Z,21.11
2024-05-09T16:47:08.483Z,20.60
2024-05-09T16:49:53.820Z,20.68
2024-05-09T16:52:39.162Z,20.97
2024-05-09T16:55:24.613Z,21.12
2024-05-09T16:58:10.070Z,21.24
2024-05-09T17:00:55.551Z,21.11
2024-05-09T17:03:41.063Z,21.02
2024-05-09T17:06:26.754Z,20.87
2024-05-09T17:09:15.500Z,20.91
2024-05-09T17:12:00.791Z,20.82
2024-05-09T17:14:46.120Z,20.95
2024-05-09T17:17:31.408Z,20.75
2024-05-09T17:20:26.127Z,20.55
2024-05-09T17:23:17.860Z,20.80
2024-05-09T17:26:03.475Z,20.87
2024-05-09T17:28:48.817Z,20.92
2024-05-09T17:31:34.431Z,20.92
2024-05-09T17:34:19.886Z,20.62
2024-05-09T17:37:05.330Z,20.48
2024-05-09T17:39:50.636Z,20.34
2024-05-09T17:42:36.131Z,20.26
2024-05-09T17:45:21.595Z,20.10
2024-05-09T17:48:07.777Z,20.04
2024-05-09T17:50:53.104Z,20.05
2024-05-09T17:53:38.385Z,20.12
2024-05-09T17:56:23.834Z,20.05
2024-05-09T17:59:11.464Z,20.06
2024-05-09T18:01:57.200Z,19.98
2024-05-09T18:04:42.813Z,20.03
2024-05-09T18:07:28.101Z,19.84
2024-05-09T18:10:19.529Z,19.81
2024-05-09T18:13:12.207Z,20.02
2024-05-09T18:15:58.225Z,19.93
2024-05-09T18:18:43.708Z,19.67
2024-05-09T18:21:28.863Z,19.62
2024-05-09T18:24:14.514Z,19.61
2024-05-09T18:26:59.982Z,19.62
2024-05-09T18:29:45.459Z,19.58
2024-05-09T18:32:30.990Z,19.58
2024-05-09T18:35:16.301Z,19.62
2024-05-09T18:38:02.183Z,19.64
2024-05-09T18:40:49.228Z,19.69
2024-05-09T18:43:41.976Z,19.69
2024-05-09T18:46:30.352Z,19.70
2024-05-09T18:49:15.904Z,19.74
2024-05-09T18:52:01.627Z,19.55
2024-05-09T18:54:47.154Z,19.66
2024-05-09T18:57:32.646Z,19.55
2024-05-09T19:00:30.907Z,19.40
2024-05-09T19:03:20.752Z,19.34
2024-05-09T19:06:06.099Z,19.36
2024-05-09T19:08:51.184Z,19.17
2024-05-09T19:11:36.878Z,19.07
2024-05-09T19:14:22.122Z,18.96
2024-05-09T19:17:07.704Z,19.16
2024-05-09T19:19:53.107Z,18.75
2024-05-09T19:22:38.433Z,18.74
2024-05-09T19:25:24.074Z,18.64
2024-05-09T19:28:09.521Z,18.51
2024-05-09T19:30:54.943Z,18.65
2024-05-09T19:33:40.304Z,18.51
2024-05-09T19:36:25.712Z,18.43
2024-05-09T19:39:11.183Z,18.44
2024-05-09T19:41:56.601Z,18.32
2024-05-09T19:44:42.124Z,18.26
2024-05-09T19:47:27.634Z,18.18
2024-05-09T19:50:19.540Z,17.96
2024-05-09T19:53:08.859Z,17.81
2024-05-09T19:55:54.145Z,17.88
2024-05-09T19:58:39.588Z,17.70
2024-05-09T20:01:25.076Z,17.84
2024-05-09T20:04:10.395Z,17.77
2024-05-09T20:06:55.746Z,17.60
2024-05-09T20:09:41.239Z,17.68
2024-05-09T20:12:26.432Z,17.49
2024-05-09T20:15:12.102Z,17.46
2024-05-09T20:17:57.561Z,17.53
2024-05-09T20:20:44.962Z,17.35
2024-05-09T20:23:30.556Z,17.16
2024-05-09T20:26:15.688Z,16.89
2024-05-09T20:29:01.581Z,16.66
2024-05-09T20:31:46.983Z,16.76
2024-05-09T20:34:32.341Z,16.76
2024-05-09T20:37:17.986Z,16.35
2024-05-09T20:40:05.067Z,15.83
2024-05-09T20:42:52.467Z,15.75
2024-05-09T20:45:38.120Z,15.36
2024-05-09T20:48:23.829Z,15.19
2024-05-09T20:51:09.788Z,15.13
2024-05-09T20:53:55.000Z,15.23
2024-05-09T20:56:40.320Z,15.31
2024-05-09T20:59:25.797Z,14.84
2024-05-09T21:02:11.339Z,14.83
2024-05-09T21:04:56.841Z,14.75
2024-05-09T21:07:42.242Z,14.56
2024-05-09T21:10:32.113Z,14.41
2024-05-09T21:13:18.776Z,14.40
2024-05-09T21:16:05.147Z,14.52
2024-05-09T21:18:50.364Z,14.40
2024-05-09T21:21:40.164Z,13.97
2024-05-09T21:24:25.216Z,13.99
2024-05-09T21:27:10.413Z,13.90
2024-05-09T21:29:55.886Z,13.67
2024-05-09T21:32:41.361Z,13.69
2024-05-09T21:35:26.903Z,13.78
2024-05-09T21:38:13.078Z,13.78
2024-05-09T21:40:58.700Z,13.95
2024-05-09T21:43:43.955Z,13.90
2024-05-09T21:46:29.571Z,13.54
2024-05-09T21:49:14.760Z,13.60
2024-05-09T21:52:00.018Z,13.62
2024-05-09T21:54:46.449Z,13.72
2024-05-09T21:57:31.625Z,13.78
2024-05-09T22:00:28.375Z,13.81
2024-05-09T22:03:20.647Z,13.48
2024-05-09T22:06:06.063Z,13.54
2024-05-09T22:08:51.432Z,13.61
2024-05-09T22:11:36.935Z,13.53
2024-05-09T22:14:22.291Z,13.18
2024-05-09T22:17:07.812Z,13.23
2024-05-09T22:19:53.275Z,12.97
2024-05-09T22:22:38.688Z,13.17
2024-05-09T22:25:26.071Z,13.17
2024-05-09T22:28:14.845Z,12.94
2024-05-09T22:31:00.186Z,12.80
2024-05-09T22:33:48.154Z,12.68
2024-05-09T22:36:33.882Z,12.71
2024-05-09T22:39:19.166Z,12.81
2024-05-09T22:42:04.701Z,12.98
2024-05-09T22:44:49.884Z,12.95
2024-05-09T22:47:35.561Z,12.82
2024-05-09T22:50:26.755Z,13.04
2024-05-09T22:53:16.206Z,12.99
2024-05-09T22:56:01.595Z,12.79
2024-05-09T22:58:46.978Z,12.73
2024-05-09T23:01:32.224Z,12.60
2024-05-09T23:04:17.959Z,12.65
2024-05-09T23:07:03.565Z,12.71
2024-05-09T23:09:48.959Z,12.71
2024-05-09T23:12:34.476Z,12.40
2024-05-09T23:15:20.053Z,12.30
2024-05-09T23:18:06.093Z,12.22
2024-05-09T23:20:51.444Z,12.17
2024-05-09T23:23:36.759Z,11.89
2024-05-09T23:26:22.232Z,11.88
2024-05-09T23:29:07.715Z,12.05
2024-05-09T23:31:53.112Z,11.72
2024-05-09T23:34:38.474Z,11.81
2024-05-09T23:37:23.528Z,11.97
2024-05-09T23:40:09.782Z,11.92
2024-05-09T23:42:55.217Z,11.57
2024-05-09T23:45:41.338Z,11.63
2024-05-09T23:48:26.754Z,11.55
2024-05-09T23:51:11.712Z,11.61
2024-05-09T23:53:57.153Z,11.66
2024-05-09T23:56:42.559Z,11.81
2024-05-09T23:59:28.043Z,11.69
